Time;durP1;ratioP1;P1;durP2;ratioP2;P2;SDS_P1;SDS_P2;PMS_P1;PMS_P2;Temp;Humidity;BMP_temperature;BMP_pressure;BME280_temperature;BME280_humidity;BME280_pressure;Samples;Min_cycle;Max_cycle;Signal;HPM_P1;HPM_P2
2023/08/02 00:01:56;;;;;;;2.17;1.80;;;;;;;15.50;98.80;97293.00;5053565;28;20235;-86
2023/08/02 00:04:22;;;;;;;5.70;1.93;;;;;;;15.46;99.52;97290.81;5053318;28;20212;-86
2023/08/02 00:06:48;;;;;;;3.03;1.70;;;;;;;15.46;100.00;97299.63;5053440;28;20228;-86
2023/08/02 00:09:17;;;;;;;2.77;1.87;;;;;;;15.41;100.00;97290.44;5052581;28;20207;-86
2023/08/02 00:11:45;;;;;;;2.13;1.57;;;;;;;15.38;100.00;97296.06;5053514;28;20210;-86
2023/08/02 00:14:11;;;;;;;2.60;1.63;;;;;;;15.34;100.00;97294.72;5053635;28;20679;-86
2023/08/02 00:16:38;;;;;;;2.60;2.00;;;;;;;15.35;100.00;97281.25;5053188;28;20295;-86
2023/08/02 00:19:04;;;;;;;2.93;1.63;;;;;;;15.38;100.00;97278.28;5053319;28;20212;-86
2023/08/02 00:21:30;;;;;;;2.57;1.80;;;;;;;15.39;100.00;97277.28;5052789;28;20203;-86
2023/08/02 00:23:57;;;;;;;1.90;1.53;;;;;;;15.43;100.00;97277.78;5053387;28;20230;-86
2023/08/02 00:26:23;;;;;;;2.20;1.50;;;;;;;15.48;100.00;97278.16;5053124;28;20219;-86
2023/08/02 00:28:51;;;;;;;2.30;1.53;;;;;;;15.53;100.00;97273.22;5053131;28;20688;-86
2023/08/02 00:31:18;;;;;;;2.00;1.60;;;;;;;15.53;100.00;97267.88;5052351;28;20238;-86
2023/08/02 00:33:45;;;;;;;3.60;2.20;;;;;;;15.51;100.00;97267.22;5052948;28;20232;-86
2023/08/02 00:36:11;;;;;;;2.73;1.60;;;;;;;15.42;100.00;97260.16;5053417;28;20215;-86
2023/08/02 00:38:38;;;;;;;4.83;2.00;;;;;;;15.41;100.00;97263.81;5053505;28;20698;-86
2023/08/02 00:41:08;;;;;;;6.87;2.17;;;;;;;15.45;100.00;97251.88;5052779;28;20204;-86
2023/08/02 00:43:39;;;;;;;3.40;1.80;;;;;;;15.46;100.00;97250.88;5053385;28;20235;-86
2023/08/02 00:46:07;;;;;;;3.03;1.47;;;;;;;15.44;100.00;97247.50;5053487;28;20253;-86
2023/08/02 00:48:34;;;;;;;2.73;1.73;;;;;;;15.37;100.00;97241.16;5053372;28;20676;-86
2023/08/02 00:51:01;;;;;;;1.60;1.50;;;;;;;15.34;100.00;97236.97;5052527;28;20623;-86
2023/08/02 00:53:28;;;;;;;3.07;1.50;;;;;;;15.32;100.00;97232.75;5052517;28;20231;-86
2023/08/02 00:55:56;;;;;;;2.83;1.70;;;;;;;15.33;100.00;97229.16;5052735;28;20208;-86
2023/08/02 00:58:23;;;;;;;1.93;1.60;;;;;;;15.36;100.00;97237.66;5052569;28;20596;-86
2023/08/02 01:00:52;;;;;;;1.90;1.60;;;;;;;15.37;100.00;97230.50;5049939;28;20218;-86
2023/08/02 01:03:21;;;;;;;2.83;1.60;;;;;;;15.31;100.00;97220.44;5049806;28;20529;-86
2023/08/02 01:05:52;;;;;;;3.20;1.73;;;;;;;15.28;100.00;97234.91;5049812;28;20291;-86
2023/08/02 01:08:26;;;;;;;3.40;1.53;;;;;;;15.21;100.00;97230.38;5049894;28;20234;-86
2023/08/02 01:11:02;;;;;;;2.33;1.70;;;;;;;15.17;100.00;97226.34;5051688;28;20631;-86
2023/08/02 01:13:30;;;;;;;1.80;1.70;;;;;;;15.10;100.00;97225.31;5052414;28;20282;-86
2023/08/02 01:15:59;;;;;;;2.67;1.60;;;;;;;15.06;100.00;97226.59;5052495;28;20214;-86
2023/08/02 01:18:27;;;;;;;2.23;1.47;;;;;;;15.04;100.00;97225.94;5052246;28;20212;-86
2023/08/02 01:20:55;;;;;;;3.53;1.73;;;;;;;15.02;100.00;97226.06;5051828;28;20330;-86
2023/08/02 01:23:21;;;;;;;2.70;1.70;;;;;;;14.99;100.00;97225.56;5051826;28;20254;-85
2023/08/02 01:25:49;;;;;;;2.57;1.60;;;;;;;14.97;100.00;97219.56;5052239;28;20241;-86
2023/08/02 01:28:21;;;;;;;2.13;1.83;;;;;;;14.93;100.00;97211.06;5052096;28;20231;-86
2023/08/02 01:30:50;;;;;;;3.37;2.30;;;;;;;14.96;100.00;97207.25;5051175;28;20212;-86
2023/08/02 01:33:17;;;;;;;2.40;1.70;;;;;;;14.98;100.00;97199.94;5052035;28;20250;-85
2023/08/02 01:35:44;;;;;;;2.93;1.83;;;;;;;15.06;100.00;97202.66;5052116;28;20620;-85
2023/08/02 01:38:12;;;;;;;1.87;1.70;;;;;;;15.06;100.00;97194.66;5052197;28;20235;-86
2023/08/02 01:40:38;;;;;;;7.23;2.23;;;;;;;15.07;100.00;97201.66;5051399;28;20224;-86
2023/08/02 01:43:05;;;;;;;2.70;1.90;;;;;;;15.07;100.00;97194.50;5051992;28;20228;-85
2023/08/02 01:45:31;;;;;;;3.13;2.10;;;;;;;15.07;100.00;97191.00;5051741;28;20223;-85
2023/08/02 01:47:58;;;;;;;3.30;1.70;;;;;;;15.18;100.00;97194.25;5051709;28;20228;-86
2023/08/02 01:50:25;;;;;;;2.40;1.90;;;;;;;15.18;100.00;97188.94;5051057;28;20236;-85
2023/08/02 01:52:51;;;;;;;2.80;1.93;;;;;;;15.22;100.00;97189.44;5051488;28;20236;-85
2023/08/02 01:55:20;;;;;;;2.90;1.93;;;;;;;15.27;100.00;97187.16;5051792;28;20207;-85
2023/08/02 01:57:46;;;;;;;2.17;1.63;;;;;;;15.29;100.00;97187.81;5051784;28;20207;-85
2023/08/02 02:00:14;;;;;;;2.27;1.73;;;;;;;15.22;100.00;97190.28;5051077;28;20208;-85
2023/08/02 02:02:40;;;;;;;3.90;1.90;;;;;;;15.19;100.00;97187.09;5051639;28;20235;-86
2023/08/02 02:05:07;;;;;;;2.37;1.90;;;;;;;15.20;100.00;97200.25;5050842;28;20208;-85
2023/08/02 02:07:34;;;;;;;2.90;1.97;;;;;;;15.20;100.00;97180.78;5051397;28;20228;-85
2023/08/02 02:10:02;;;;;;;4.70;2.30;;;;;;;15.15;100.00;97172.44;5050821;28;20218;-85
2023/08/02 02:12:30;;;;;;;3.77;2.20;;;;;;;15.15;100.00;97173.25;5051382;28;20314;-85
2023/08/02 02:14:57;;;;;;;4.03;2.00;;;;;;;15.10;100.00;97177.41;5051449;28;20209;-86
2023/08/02 02:17:23;;;;;;;5.93;2.43;;;;;;;15.03;100.00;97157.72;5051490;28;20214;-86
2023/08/02 02:19:50;;;;;;;3.57;1.97;;;;;;;14.99;100.00;97153.72;5050582;28;20208;-85
2023/08/02 02:22:16;;;;;;;2.97;2.07;;;;;;;15.02;100.00;97156.88;5051315;28;20771;-85
2023/08/02 02:24:44;;;;;;;2.93;1.67;;;;;;;14.99;100.00;97159.03;5051392;28;20211;-85
2023/08/02 02:27:10;;;;;;;3.37;1.97;;;;;;;15.05;100.00;97158.41;5051135;28;20290;-85
2023/08/02 02:29:38;;;;;;;2.63;1.77;;;;;;;15.12;100.00;97140.81;5050569;28;20221;-86
2023/08/02 02:32:06;;;;;;;2.90;1.70;;;;;;;15.21;100.00;97140.69;5051108;28;20227;-86
2023/08/02 02:34:32;;;;;;;4.63;1.63;;;;;;;15.27;100.00;97128.59;5051109;28;20208;-86
2023/08/02 02:36:59;;;;;;;3.33;1.80;;;;;;;15.31;100.00;97127.25;5051455;28;20203;-85
2023/08/02 02:39:25;;;;;;;2.43;1.73;;;;;;;15.40;100.00;97124.50;5050475;28;20215;-85
2023/08/02 02:41:52;;;;;;;4.13;1.90;;;;;;;15.51;100.00;97120.75;5051216;28;20231;-86
2023/08/02 02:44:18;;;;;;;3.10;1.90;;;;;;;15.59;100.00;97121.59;5051213;28;20208;-85
2023/08/02 02:46:46;;;;;;;3.60;2.00;;;;;;;15.69;100.00;97116.97;5051116;28;20220;-86
2023/08/02 02:49:13;;;;;;;1.93;1.57;;;;;;;15.76;100.00;97119.84;5050488;28;20235;-85
2023/08/02 02:51:39;;;;;;;1.60;1.50;;;;;;;15.83;100.00;97113.66;5051082;28;20208;-85
2023/08/02 02:54:06;;;;;;;3.50;1.67;;;;;;;15.88;100.00;97107.88;5050891;28;20226;-86
2023/08/02 02:56:32;;;;;;;1.83;1.50;;;;;;;15.92;100.00;97119.84;5050799;28;20218;-85
2023/08/02 02:58:58;;;;;;;2.37;1.83;;;;;;;15.93;100.00;97117.03;5050830;28;20564;-86
2023/08/02 03:01:25;;;;;;;2.37;2.17;;;;;;;15.98;100.00;97111.22;5050779;28;20219;-85
2023/08/02 03:03:53;;;;;;;2.43;1.63;;;;;;;16.01;100.00;97110.91;5051048;28;20228;-86
2023/08/02 03:06:19;;;;;;;2.20;1.73;;;;;;;16.02;100.00;97093.91;5050894;28;20215;-85
2023/08/02 03:08:46;;;;;;;3.00;1.67;;;;;;;16.02;100.00;97092.91;5050913;28;20231;-85
2023/08/02 03:11:12;;;;;;;2.70;1.70;;;;;;;16.07;100.00;97092.41;5050271;28;20212;-85
2023/08/02 03:13:39;;;;;;;2.50;1.63;;;;;;;16.08;100.00;97086.91;5050572;28;20239;-85
2023/08/02 03:16:06;;;;;;;2.40;1.90;;;;;;;16.13;100.00;97079.25;5053087;28;20208;-85
2023/08/02 03:18:32;;;;;;;4.37;1.80;;;;;;;16.13;100.00;97071.25;5054858;28;20204;-85
2023/08/02 03:21:00;;;;;;;3.33;1.80;;;;;;;16.15;100.00;97069.25;5053902;28;20215;-85
2023/08/02 03:23:26;;;;;;;3.57;1.67;;;;;;;16.24;100.00;97070.94;5054313;28;20228;-85
2023/08/02 03:25:56;;;;;;;2.27;1.73;;;;;;;16.36;98.77;97063.44;5054235;28;20246;-85
2023/08/02 03:28:22;;;;;;;2.50;1.80;;;;;;;16.43;97.04;97073.28;5053993;28;20231;-85
2023/08/02 03:30:48;;;;;;;3.13;1.63;;;;;;;16.46;96.20;97061.47;5053879;28;20304;-85
2023/08/02 03:33:15;;;;;;;2.03;1.60;;;;;;;16.50;95.36;97060.94;5054572;28;20638;-85
2023/08/02 03:35:42;;;;;;;3.20;1.90;;;;;;;16.59;94.01;97048.44;5054346;28;20208;-85
2023/08/02 03:38:09;;;;;;;1.50;1.40;;;;;;;16.59;93.95;97048.44;5054176;28;20205;-85
2023/08/02 03:40:36;;;;;;;2.03;1.50;;;;;;;16.69;92.45;97044.59;5053314;28;20671;-85
2023/08/02 03:43:02;;;;;;;2.20;1.63;;;;;;;16.70;92.41;97040.91;5053888;28;20240;-85
2023/08/02 03:45:29;;;;;;;3.63;2.00;;;;;;;16.68;92.49;97039.41;5054468;28;20208;-85
2023/08/02 03:47:55;;;;;;;2.50;1.60;;;;;;;16.70;92.18;97029.41;5054116;28;20232;-85
2023/08/02 03:50:22;;;;;;;2.00;1.70;;;;;;;16.70;92.15;97027.56;5053213;28;20211;-85
2023/08/02 03:52:49;;;;;;;2.97;1.57;;;;;;;16.70;91.46;97016.06;5053965;28;20235;-85
2023/08/02 03:55:17;;;;;;;2.00;1.60;;;;;;;16.70;91.59;97018.75;5053777;28;20204;-85
2023/08/02 03:57:44;;;;;;;2.10;1.57;;;;;;;16.71;91.02;97012.41;5053607;28;20556;-85
2023/08/02 04:00:14;;;;;;;1.90;1.63;;;;;;;16.74;90.30;97006.72;5053199;28;20219;-85
2023/08/02 04:02:40;;;;;;;2.03;1.50;;;;;;;16.76;89.60;97002.88;5053605;28;20264;-85
2023/08/02 04:05:07;;;;;;;2.23;1.53;;;;;;;16.85;89.29;96993.84;5053473;28;20219;-85
2023/08/02 04:07:33;;;;;;;3.73;1.70;;;;;;;16.78;89.45;97000.03;5053789;28;20208;-85
2023/08/02 04:10:00;;;;;;;2.13;1.60;;;;;;;16.77;89.40;97001.03;5052952;28;20215;-85
2023/08/02 04:12:28;;;;;;;3.13;1.67;;;;;;;16.84;89.25;96994.84;5053528;28;20702;-85
2023/08/02 04:14:57;;;;;;;1.70;1.60;;;;;;;16.80;89.15;96996.19;5053833;28;20216;-85
2023/08/02 04:17:25;;;;;;;2.50;1.70;;;;;;;16.85;88.84;96988.50;5053539;28;20208;-85
2023/08/02 04:19:52;;;;;;;3.33;1.77;;;;;;;16.82;88.77;96994.19;5053248;28;20204;-85
2023/08/02 04:22:18;;;;;;;3.47;1.70;;;;;;;16.88;88.26;96990.81;5053292;28;20236;-85
2023/08/02 04:24:44;;;;;;;2.23;1.87;;;;;;;16.89;88.08;96972.97;5053284;28;20219;-85
2023/08/02 04:27:11;;;;;;;2.80;1.80;;;;;;;16.89;88.18;96973.78;5052882;28;20207;-85
2023/08/02 04:29:39;;;;;;;2.37;1.63;;;;;;;16.88;88.42;96971.31;5052927;28;20224;-85
2023/08/02 04:32:06;;;;;;;3.87;1.70;;;;;;;16.89;88.20;96971.13;5053431;28;20745;-85
2023/08/02 04:34:32;;;;;;;2.33;1.60;;;;;;;16.83;88.37;96960.34;5053706;28;20215;-85
2023/08/02 04:36:59;;;;;;;4.40;2.00;;;;;;;16.76;89.81;96968.19;5053470;28;20204;-85
2023/08/02 04:39:25;;;;;;;3.00;2.00;;;;;;;16.65;93.12;96981.88;5052927;28;20200;-86
2023/08/02 04:41:54;;;;;;;3.20;1.80;;;;;;;16.53;96.70;96977.91;5053292;28;20243;-85
2023/08/02 04:44:20;;;;;;;1.93;1.70;;;;;;;16.36;100.00;96981.59;5053562;28;20207;-86
2023/08/02 04:46:48;;;;;;;2.20;2.00;;;;;;;16.22;100.00;96976.13;5053346;28;20283;-86
2023/08/02 04:49:14;;;;;;;4.33;1.80;;;;;;;16.12;100.00;96974.66;5052639;28;20236;-85
2023/08/02 04:51:41;;;;;;;2.23;1.73;;;;;;;16.04;100.00;96978.94;5052978;28;20208;-84
2023/08/02 04:54:07;;;;;;;2.20;1.83;;;;;;;15.96;100.00;96975.50;5053460;28;20211;-85
2023/08/02 04:56:34;;;;;;;3.50;2.33;;;;;;;15.93;100.00;96967.81;5053104;28;20212;-85
2023/08/02 04:59:00;;;;;;;2.67;2.17;;;;;;;15.90;100.00;96967.31;5053656;28;20212;-85
2023/08/02 05:01:27;;;;;;;2.67;2.23;;;;;;;15.81;100.00;96971.81;5053048;28;20208;-85
2023/08/02 05:03:55;;;;;;;4.10;2.03;;;;;;;15.71;100.00;96971.13;5053260;28;20231;-84
2023/08/02 05:06:21;;;;;;;3.20;2.00;;;;;;;15.59;100.00;96969.78;5053484;28;20208;-85
2023/08/02 05:08:48;;;;;;;4.77;2.53;;;;;;;15.49;100.00;96968.28;5052496;28;20224;-85
2023/08/02 05:11:14;;;;;;;3.33;2.60;;;;;;;15.43;100.00;96974.25;5051744;28;20713;-86
2023/08/02 05:13:40;;;;;;;3.87;2.30;;;;;;;15.41;100.00;96977.06;5052370;28;20234;-86
2023/08/02 05:16:12;;;;;;;3.77;1.90;;;;;;;15.27;100.00;96968.88;5052791;28;20294;-85
2023/08/02 05:18:39;;;;;;;4.20;2.10;;;;;;;15.25;100.00;96963.72;5052422;28;20219;-86
2023/08/02 05:21:12;;;;;;;3.00;2.30;;;;;;;15.23;100.00;96965.72;5051514;28;20212;-86
2023/08/02 05:23:39;;;;;;;3.30;2.50;;;;;;;15.18;100.00;96975.16;5052520;28;20228;-88
2023/08/02 05:26:06;;;;;;;3.63;2.30;;;;;;;15.17;100.00;96960.19;5052527;28;20211;-88
2023/08/02 05:28:32;;;;;;;3.07;2.57;;;;;;;15.11;100.00;96956.38;5052415;28;20597;-88
2023/08/02 05:30:59;;;;;;;5.47;2.73;;;;;;;15.07;100.00;96957.69;5051594;28;20211;-87
2023/08/02 05:33:25;;;;;;;3.30;3.00;;;;;;;15.06;100.00;96953.34;5052102;28;20240;-87
2023/08/02 05:35:52;;;;;;;2.90;2.60;;;;;;;15.05;100.00;96948.19;5052568;28;20212;-88
2023/08/02 05:38:20;;;;;;;2.93;2.60;;;;;;;15.05;100.00;96942.88;5051669;28;20208;-87
2023/08/02 05:40:46;;;;;;;4.63;3.07;;;;;;;14.98;100.00;96941.84;5050879;28;20208;-86
2023/08/02 05:43:13;;;;;;;4.00;3.00;;;;;;;14.98;100.00;96941.84;5051714;28;20682;-86
2023/08/02 05:45:39;;;;;;;4.57;2.60;;;;;;;15.04;100.00;96941.19;5051718;28;20214;-86
2023/08/02 05:48:06;;;;;;;3.80;2.87;;;;;;;14.99;100.00;96938.19;5052050;28;20204;-86
2023/08/02 05:50:34;;;;;;;4.73;2.97;;;;;;;14.99;100.00;96939.03;5051362;28;20215;-87
2023/08/02 05:53:00;;;;;;;4.00;3.20;;;;;;;15.03;100.00;96940.34;5051839;28;20246;-87
2023/08/02 05:55:28;;;;;;;3.80;3.10;;;;;;;15.13;100.00;96929.56;5051920;28;20208;-84
2023/08/02 05:57:55;;;;;;;3.70;2.70;;;;;;;15.19;100.00;96920.94;5051809;28;20204;-85
2023/08/02 06:00:21;;;;;;;5.07;3.03;;;;;;;15.22;100.00;96912.63;5051167;28;20200;-85
2023/08/02 06:02:48;;;;;;;4.10;2.93;;;;;;;15.23;100.00;96917.81;5051792;28;20234;-85
2023/08/02 06:05:14;;;;;;;5.10;3.20;;;;;;;15.24;100.00;96906.16;5052033;28;20596;-85
2023/08/02 06:07:40;;;;;;;5.30;2.83;;;;;;;15.23;100.00;96916.97;5051736;28;20208;-83
2023/08/02 06:10:07;;;;;;;3.90;2.93;;;;;;;15.24;100.00;96921.28;5050606;28;20678;-84
2023/08/02 06:12:35;;;;;;;5.33;3.03;;;;;;;15.24;100.00;96923.94;5051314;28;20232;-85
2023/08/02 06:15:02;;;;;;;4.03;3.33;;;;;;;15.15;100.00;96917.75;5051201;28;20576;-88
2023/08/02 06:17:28;;;;;;;3.63;2.90;;;;;;;15.13;100.00;96910.94;5051559;28;20208;-86
2023/08/02 06:19:55;;;;;;;6.33;3.50;;;;;;;15.13;100.00;96908.28;5050651;28;20225;-87
2023/08/02 06:22:21;;;;;;;4.27;3.40;;;;;;;15.17;100.00;96904.31;5051284;28;20223;-88
2023/08/02 06:24:48;;;;;;;6.00;3.53;;;;;;;15.14;100.00;96902.81;5051169;28;20223;-83
2023/08/02 06:27:14;;;;;;;6.00;3.87;;;;;;;15.15;100.00;96908.97;5051352;28;20220;-84
2023/08/02 06:29:42;;;;;;;5.97;4.23;;;;;;;15.18;100.00;96893.50;5050294;28;20282;-85
2023/08/02 06:32:09;;;;;;;8.70;4.00;;;;;;;15.22;100.00;96891.34;5051127;28;20235;-84
2023/08/02 06:34:35;;;;;;;5.80;3.80;;;;;;;15.24;100.00;96886.69;5051525;28;20214;-84
2023/08/02 06:37:02;;;;;;;6.40;4.23;;;;;;;15.24;100.00;96886.69;5051057;28;20212;-83
2023/08/02 06:39:28;;;;;;;7.50;5.00;;;;;;;15.32;100.00;96882.22;5050383;28;20775;-83
2023/08/02 06:41:55;;;;;;;7.87;4.40;;;;;;;15.32;100.00;96878.69;5050923;28;20247;-83
2023/08/02 06:44:21;;;;;;;6.63;4.00;;;;;;;15.24;100.00;96862.72;5051320;28;20696;-87
2023/08/02 06:46:50;;;;;;;6.80;4.20;;;;;;;15.28;100.00;96853.41;5051838;28;20223;-90
2023/08/02 06:49:16;;;;;;;9.77;4.77;;;;;;;15.30;100.00;96849.59;5050295;28;20706;-85
2023/08/02 06:51:43;;;;;;;8.13;4.70;;;;;;;15.32;100.00;96831.66;5054850;28;20204;-86
2023/08/02 06:54:09;;;;;;;9.40;5.10;;;;;;;15.36;100.00;96832.16;5070083;22;20232;-83
2023/08/02 06:56:36;;;;;;;6.67;4.80;;;;;;;15.50;100.00;96831.47;5055346;28;20204;-82
2023/08/02 06:59:02;;;;;;;8.53;4.67;;;;;;;15.62;100.00;96824.81;5055422;28;20734;-83
2023/08/02 07:01:29;;;;;;;5.80;4.30;;;;;;;15.65;100.00;96824.47;5054813;28;20316;-83
2023/08/02 07:03:56;;;;;;;6.07;4.33;;;;;;;15.75;100.00;96819.78;5055198;28;20601;-84
2023/08/02 07:06:23;;;;;;;7.20;4.87;;;;;;;15.74;100.00;96824.28;5055008;28;20222;-80
2023/08/02 07:08:50;;;;;;;6.27;4.50;;;;;;;15.75;100.00;96833.09;5054733;28;20230;-79
2023/08/02 07:11:17;;;;;;;8.40;4.70;;;;;;;15.75;100.00;96819.78;5051006;28;20674;-78
2023/08/02 07:13:45;;;;;;;10.17;5.20;;;;;;;15.63;100.00;96816.66;5054024;28;20281;-80
2023/08/02 07:16:11;;;;;;;8.43;5.47;;;;;;;15.63;100.00;96811.31;5053951;28;20199;-79
2023/08/02 07:18:38;;;;;;;7.97;5.80;;;;;;;15.65;100.00;96813.81;5053306;28;20204;-80
2023/08/02 07:21:07;;;;;;;7.60;5.43;;;;;;;15.69;100.00;96809.81;5052940;28;20212;-79
2023/08/02 07:23:34;;;;;;;9.50;6.20;;;;;;;15.78;100.00;96798.16;5053669;28;20737;-79
2023/08/02 07:26:01;;;;;;;8.40;6.20;;;;;;;15.93;100.00;96796.44;5053633;28;20204;-80
2023/08/02 07:28:28;;;;;;;7.50;5.90;;;;;;;16.05;100.00;96795.91;5054052;28;20218;-79
2023/08/02 07:31:05;;;;;;;6.90;5.80;;;;;;;16.19;100.00;96785.34;5052831;28;20239;-78
2023/08/02 07:33:31;;;;;;;7.67;5.93;;;;;;;16.36;100.00;96784.28;5053065;28;20232;-78
2023/08/02 07:35:58;;;;;;;11.97;7.60;;;;;;;16.46;100.00;96776.91;5053524;28;20532;-78
2023/08/02 07:38:25;;;;;;;7.63;6.20;;;;;;;16.52;100.00;96784.22;5053768;28;20222;-78
2023/08/02 07:40:52;;;;;;;7.67;5.30;;;;;;;16.51;100.00;96774.56;5051643;28;20671;-79
2023/08/02 07:43:17;;;;;;;7.47;6.03;;;;;;;16.54;100.00;96774.22;5053573;28;20232;-78
2023/08/02 07:45:44;;;;;;;9.27;6.30;;;;;;;16.55;100.00;96762.53;5053479;28;20208;-80
2023/08/02 07:48:11;;;;;;;8.80;6.50;;;;;;;16.62;100.00;96763.50;5052872;28;20687;-78
2023/08/02 07:50:37;;;;;;;10.27;6.40;;;;;;;16.70;100.00;96776.78;5052459;28;20227;-80
2023/08/02 07:53:03;;;;;;;7.90;6.00;;;;;;;16.74;100.00;96767.41;5053226;28;20253;-79
2023/08/02 07:55:31;;;;;;;7.17;5.97;;;;;;;16.79;100.00;96764.22;5052862;28;20218;-78
2023/08/02 07:57:58;;;;;;;9.50;5.87;;;;;;;16.87;100.00;96756.16;5053462;28;20214;-78
2023/08/02 08:00:25;;;;;;;7.97;6.20;;;;;;;16.87;100.00;96748.13;5052267;28;20211;-78
2023/08/02 08:02:51;;;;;;;8.60;6.30;;;;;;;16.87;100.00;96759.66;5052512;28;20498;-80
2023/08/02 08:05:18;;;;;;;9.68;7.22;;;;;;;16.85;100.00;96759.00;5053463;28;20432;-85
2023/08/02 08:07:44;;;;;;;8.03;6.57;;;;;;;16.87;100.00;96740.97;5053742;28;20208;-80
2023/08/02 08:10:11;;;;;;;9.10;6.28;;;;;;;16.92;100.00;96741.28;5053043;28;20969;-81
2023/08/02 08:12:39;;;;;;;10.10;6.30;;;;;;;16.97;100.00;96749.59;5052678;28;20236;-80
2023/08/02 08:15:07;;;;;;;9.10;6.53;;;;;;;17.01;100.00;96744.72;5051281;28;20208;-80
2023/08/02 08:17:33;;;;;;;10.17;6.80;;;;;;;16.87;100.00;96730.31;5052607;28;20226;-80
2023/08/02 08:20:00;;;;;;;8.63;6.27;;;;;;;16.86;100.00;96728.66;5052315;28;20212;-82
2023/08/02 08:22:28;;;;;;;8.13;6.47;;;;;;;16.86;100.00;96730.47;5051488;28;20254;-82
2023/08/02 08:24:55;;;;;;;9.97;6.37;;;;;;;16.87;100.00;96719.63;5052950;28;20208;-84
2023/08/02 08:27:22;;;;;;;11.67;6.50;;;;;;;16.85;100.00;96705.66;5052602;28;20208;-80
2023/08/02 08:29:50;;;;;;;7.33;5.97;;;;;;;16.86;100.00;96696.63;5051192;28;20251;-80
2023/08/02 08:32:17;;;;;;;8.80;6.17;;;;;;;16.98;100.00;96710.38;5052183;28;20267;-81
2023/08/02 08:34:43;;;;;;;8.80;6.10;;;;;;;17.01;100.00;96704.69;5052106;28;20208;-80
2023/08/02 08:37:10;;;;;;;8.87;6.37;;;;;;;16.98;100.00;96700.53;5051867;28;20234;-80
2023/08/02 08:39:37;;;;;;;7.80;5.80;;;;;;;17.04;100.00;96693.63;5051310;28;20207;-80
2023/08/02 08:42:07;;;;;;;6.63;5.63;;;;;;;17.10;100.00;96704.44;5052399;28;20302;-79
2023/08/02 08:44:36;;;;;;;7.67;5.17;;;;;;;17.11;100.00;96689.22;5051453;28;20215;-79
2023/08/02 08:47:06;;;;;;;5.27;4.53;;;;;;;17.05;100.00;96680.09;5052291;28;20690;-79
2023/08/02 08:49:32;;;;;;;4.53;3.97;;;;;;;16.99;100.00;96683.50;5051579;28;20747;-80
2023/08/02 08:52:04;;;;;;;7.87;4.70;;;;;;;17.03;100.00;96678.63;5051760;28;20218;-79
2023/08/02 08:54:32;;;;;;;5.87;4.10;;;;;;;17.10;100.00;96672.41;5053003;28;20226;-81
2023/08/02 08:56:59;;;;;;;4.27;3.33;;;;;;;17.10;100.00;96663.53;5052978;28;20208;-79
2023/08/02 08:59:26;;;;;;;4.43;3.70;;;;;;;17.05;100.00;96674.78;5052163;28;20219;-80
2023/08/02 09:01:54;;;;;;;4.17;3.50;;;;;;;17.08;100.00;96669.06;5052960;28;20215;-80
2023/08/02 09:04:22;;;;;;;4.77;3.40;;;;;;;17.09;100.00;96665.41;5053007;28;20218;-78
2023/08/02 09:06:48;;;;;;;4.97;3.30;;;;;;;17.08;100.00;96663.72;5052323;28;20204;-78
2023/08/02 09:09:16;;;;;;;3.97;3.03;;;;;;;17.02;100.00;96664.44;5051943;28;20208;-77
2023/08/02 09:11:43;;;;;;;3.47;2.83;;;;;;;17.03;100.00;96663.47;5052649;28;20208;-76
2023/08/02 09:14:11;;;;;;;4.17;3.67;;;;;;;17.04;100.00;96659.78;5052546;28;20223;-77
2023/08/02 09:16:56;;;;;;;4.63;3.00;;;;;;;17.05;100.00;96664.09;5052798;28;20261;-77
2023/08/02 09:19:27;;;;;;;4.53;3.30;;;;;;;17.07;100.00;96662.06;5053425;28;20303;-79
2023/08/02 09:22:06;;;;;;;4.30;3.07;;;;;;;17.11;100.00;96662.53;5052555;28;20208;-76
2023/08/02 09:24:34;;;;;;;4.07;2.90;;;;;;;17.14;100.00;96651.50;5053176;28;20230;-77
2023/08/02 09:27:01;;;;;;;4.60;3.60;;;;;;;17.20;100.00;96651.59;5053329;28;20209;-79
2023/08/02 09:29:43;;;;;;;4.60;3.33;;;;;;;17.24;100.00;96642.22;5065962;28;20546;-77
2023/08/02 09:32:10;;;;;;;3.93;3.23;;;;;;;17.25;100.00;96649.19;5068606;28;20208;-84
2023/08/02 09:34:44;;;;;;;3.87;3.03;;;;;;;17.28;100.00;96653.34;5066568;28;20204;-82
2023/08/02 09:37:12;;;;;;;3.80;2.90;;;;;;;17.24;100.00;96649.41;5049642;28;20274;-82
2023/08/02 09:39:39;;;;;;;5.57;4.30;;;;;;;17.23;100.00;96635.22;5051175;28;20204;-81
2023/08/02 09:42:10;;;;;;;4.77;3.40;;;;;;;17.29;100.00;96637.16;5051989;28;20361;-81
2023/08/02 09:44:36;;;;;;;5.53;3.47;;;;;;;17.35;100.00;96633.75;5050746;28;20212;-82
2023/08/02 09:47:10;;;;;;;5.83;3.27;;;;;;;17.41;100.00;96626.88;5050918;28;20681;-83
2023/08/02 09:49:37;;;;;;;3.90;3.23;;;;;;;17.48;100.00;96623.28;5050563;28;20220;-84
2023/08/02 09:52:05;;;;;;;7.13;3.80;;;;;;;17.50;100.00;96610.56;5050169;28;20211;-81
2023/08/02 09:54:32;;;;;;;4.33;3.60;;;;;;;17.54;100.00;96617.19;5051273;28;20208;-83
2023/08/02 09:57:01;;;;;;;4.47;3.90;;;;;;;17.64;100.00;96612.41;5051025;28;20215;-81
2023/08/02 09:59:30;;;;;;;4.10;3.50;;;;;;;17.68;100.00;96619.00;5049655;28;20880;-83
2023/08/02 10:01:58;;;;;;;5.40;4.00;;;;;;;17.77;100.00;96623.25;5050863;28;20211;-79
2023/08/02 10:04:25;;;;;;;4.43;3.80;;;;;;;17.82;100.00;96620.88;5051191;28;20266;-79
2023/08/02 10:06:56;;;;;;;4.70;3.60;;;;;;;17.86;100.00;96606.09;5049835;28;20200;-77
2023/08/02 10:09:27;;;;;;;4.97;3.70;;;;;;;17.96;100.00;96601.28;5050424;28;20214;-77
2023/08/02 10:11:57;;;;;;;4.73;3.77;;;;;;;18.04;100.00;96595.81;5050722;28;20218;-81
2023/08/02 10:14:24;;;;;;;4.30;3.60;;;;;;;18.17;100.00;96595.94;5050447;28;20204;-81
2023/08/02 10:16:52;;;;;;;4.53;3.40;;;;;;;18.24;100.00;96588.00;5051800;28;20208;-81
2023/08/02 10:19:19;;;;;;;4.13;3.70;;;;;;;18.45;100.00;96585.34;5050670;28;20214;-77
2023/08/02 10:21:48;;;;;;;5.10;3.87;;;;;;;18.55;100.00;96588.53;5051739;28;20208;-78
2023/08/02 10:24:14;;;;;;;6.27;3.90;;;;;;;18.70;100.00;96578.56;5051039;28;20230;-78
2023/08/02 10:26:43;;;;;;;5.10;3.77;;;;;;;18.84;100.00;96583.84;5051002;28;20208;-80
2023/08/02 10:29:09;;;;;;;5.07;3.57;;;;;;;18.96;100.00;96584.16;5050994;28;20294;-80
2023/08/02 10:31:36;;;;;;;4.93;3.77;;;;;;;19.15;100.00;96578.91;5051469;28;20737;-78
2023/08/02 10:34:38;;;;;;;4.93;3.80;;;;;;;19.47;100.00;96578.34;5051423;28;20608;-78
2023/08/02 10:37:06;;;;;;;4.30;3.90;;;;;;;19.71;100.00;96580.50;5049543;28;20295;-79
2023/08/02 10:39:54;;;;;;;5.03;4.13;;;;;;;19.65;100.00;96575.94;5050526;28;20204;-77
2023/08/02 10:42:24;;;;;;;4.33;3.57;;;;;;;19.47;100.00;96575.66;5051149;28;20232;-78
2023/08/02 10:45:12;;;;;;;4.23;3.80;;;;;;;19.22;100.00;96563.78;5051200;28;20220;-76
2023/08/02 10:47:39;;;;;;;5.07;4.30;;;;;;;19.10;100.00;96559.94;5051096;28;20274;-76
2023/08/02 10:50:06;;;;;;;4.40;3.73;;;;;;;19.04;100.00;96566.09;5050420;28;20596;-76
2023/08/02 10:52:34;;;;;;;4.37;3.77;;;;;;;18.98;100.00;96569.56;5051267;28;20612;-77
2023/08/02 10:55:03;;;;;;;5.33;4.27;;;;;;;18.88;100.00;96555.66;5051017;28;20204;-79
2023/08/02 10:57:31;;;;;;;6.60;4.00;;;;;;;18.74;100.00;96540.53;5051181;28;20215;-80
2023/08/02 10:59:58;;;;;;;7.40;4.27;;;;;;;18.77;100.00;96531.31;5050223;28;20208;-80
2023/08/02 11:02:25;;;;;;;6.27;4.17;;;;;;;18.80;100.00;96530.91;5051163;28;20228;-80
2023/08/02 11:04:52;;;;;;;5.10;3.90;;;;;;;18.83;100.00;96530.53;5051117;28;20712;-79
2023/08/02 11:07:21;;;;;;;5.77;4.47;;;;;;;18.88;100.00;96520.03;5051307;28;20211;-80
2023/08/02 11:09:49;;;;;;;4.37;3.97;;;;;;;18.88;100.00;96512.84;5050137;28;20258;-79
2023/08/02 11:12:17;;;;;;;6.33;4.73;;;;;;;18.85;100.00;96510.56;5050968;28;20232;-79
2023/08/02 11:14:46;;;;;;;6.60;4.87;;;;;;;18.87;100.00;96505.00;5051018;28;20235;-81
2023/08/02 11:17:17;;;;;;;5.77;4.67;;;;;;;18.88;100.00;96507.47;5051051;28;20208;-75
2023/08/02 11:19:46;;;;;;;6.17;4.83;;;;;;;18.75;100.00;96507.41;5050043;28;20200;-77
2023/08/02 11:22:13;;;;;;;6.40;4.60;;;;;;;18.68;100.00;96514.56;5050844;28;20204;-80
2023/08/02 11:24:44;;;;;;;6.03;4.47;;;;;;;18.61;100.00;96510.19;5050872;28;20204;-80
2023/08/02 11:27:10;;;;;;;6.77;4.07;;;;;;;18.51;100.00;96509.69;5050737;28;20210;-79
2023/08/02 11:29:37;;;;;;;6.90;4.67;;;;;;;18.41;100.00;96493.97;5049963;28;20212;-80